Bulk Trident — 3FZC7 — position and weather

sailwx.info

Track history (hours):
 
Tides and Currents Weather Stations Pressure Air Temp Water Temp Dewpoint Dewpoint Depression Visibility Wind Speed Wind Dir Waves Ship Positions

Bulk Trident

Last reported at 2018-May-20 17:15 UTC. Time now 2018-May-22 10:05 UTC.
Position N 36°39' W 027°43'.

Length 190 m; draft 11.6 m.

MMSI: 371600000.

Date/timePositionNaut miles runAvg speedWind from/ knotsBaromVisibWave heightAir tempDewpointWater temp
2018-May-20 17:15N 36°39' W 027°43'311.4
2018-May-20 16:57N 36°39' W 027°39'511.2
2018-May-20 16:30N 36°39' W 027°32'811.0
2018-May-20 15:47N 36°40' W 027°23'410.8
2018-May-20 15:24N 36°40' W 027°17'511.3
2018-May-20 14:58N 36°40' W 027°11'611.1
2018-May-20 14:28N 36°41' W 027°04'4 8.1
2018-May-20 13:56N 36°37' W 027°01'511.3
2018-May-20 13:27N 36°37' W 026°55'2411.0
2018-May-20 11:14N 36°35' W 026°24'311.2
2018-May-20 11:00N 36°35' W 026°21'611.2
2018-May-20 10:30N 36°35' W 026°14'511.0
2018-May-20 10:00N 36°34' W 026°07'510.8
2018-May-20 09:30N 36°35' W 026°01'510.9
2018-May-20 09:00N 36°34' W 025°54'611.1
2018-May-20 08:30N 36°34' W 025°47'611.3
2018-May-20 08:00N 36°34' W 025°40'611.5
2018-May-20 07:30N 36°33' W 025°33'611.5
2018-May-20 07:00N 36°33' W 025°26'611.4
2018-May-20 06:30N 36°33' W 025°19'611.5
2018-May-20 06:00N 36°33' W 025°12'611.3
2018-May-20 05:30N 36°32' W 025°05'611.3
2018-May-20 05:00N 36°32' W 024°57'611.4
2018-May-20 04:30N 36°32' W 024°50'611.2
2018-May-20 04:00N 36°32' W 024°43'611.3
2018-May-20 03:30N 36°31' W 024°36'611.5
2018-May-20 03:00N 36°31' W 024°29'611.6
2018-May-20 02:30N 36°31' W 024°22'611.6
2018-May-20 02:00N 36°31' W 024°15'611.7
2018-May-20 01:30N 36°30' W 024°07'611.6
2018-May-20 01:00N 36°30' W 024°00'611.9
2018-May-20 00:30N 36°30' W 023°53'611.8
2018-May-20 00:00N 36°29' W 023°46'611.8
2018-May-19 23:30N 36°29' W 023°38'812.0
2018-May-19 22:52N 36°28' W 023°29'612.2
2018-May-19 22:21N 36°28' W 023°21'52811.0
2018-May-17 22:31N 36°03' W 012°27'410.4
2018-May-17 22:10N 36°02' W 012°23'210.5
2018-May-17 21:58N 36°02' W 012°20'510.6
2018-May-17 21:30N 36°02' W 012°14'610.7
2018-May-17 21:00N 36°02' W 012°07'510.9
2018-May-17 20:30N 36°02' W 012°01'510.9
2018-May-17 20:00N 36°01' W 011°54'611.1
2018-May-17 19:29N 36°01' W 011°47'511.0
2018-May-17 19:00N 36°01' W 011°40'710.9
2018-May-17 18:24N 36°00' W 011°32'511.0
2018-May-17 17:59N 36°00' W 011°27'611.1
2018-May-17 17:27N 35°60' W 011°19'27810.8
2018-May-16 15:46N 35°58' W 005°36'3 9.9
2018-May-16 15:30N 35°58' W 005°33'6 9.8
2018-May-16 14:54N 36°01' W 005°26'3 8.6
2018-May-16 14:30N 36°03' W 005°24'5 9.0
2018-May-16 14:00N 36°08' W 005°24'1 1.2
2018-May-16 13:30N 36°08' W 005°23'0 0.0
2018-May-16 07:57N 36°08' W 005°23'0 0.1
2018-May-16 07:15N 36°08' W 005°23'0 0.0
2018-May-16 04:42N 36°08' W 005°23'1 2.6
2018-May-16 04:18N 36°07' W 005°22'1 5.0
2018-May-16 04:00N 36°06' W 005°22'3 5.5
2018-May-16 03:30N 36°05' W 005°19'0 0.9
2018-May-16 03:00N 36°05' W 005°18'4 8.2
2018-May-16 02:30N 36°07' W 005°14'2 1.4
2018-May-16 01:19N 36°09' W 005°13'0 0.2
2018-May-15 23:57N 36°08' W 005°13'2 0.8
2018-May-15 21:35N 36°06' W 005°12'  
Track history (hours):
 
Tides and Currents Weather Stations Pressure Air Temp Water Temp Dewpoint Dewpoint Depression Visibility Wind Speed Wind Dir Waves Ship Positions

Bulk Trident

Last reported at 2018-May-20 17:15 UTC. Time now 2018-May-22 10:05 UTC.
Position N 36°39' W 027°43'.

Length 190 m; draft 11.6 m.

MMSI: 371600000.

Date/timePositionNaut miles runAvg speedWind from/ knotsBaromVisibWave heightAir tempDewpointWater temp
2018-May-20 17:15N 36°39' W 027°43'311.4
2018-May-20 16:57N 36°39' W 027°39'511.2
2018-May-20 16:30N 36°39' W 027°32'811.0
2018-May-20 15:47N 36°40' W 027°23'410.8
2018-May-20 15:24N 36°40' W 027°17'511.3
2018-May-20 14:58N 36°40' W 027°11'611.1
2018-May-20 14:28N 36°41' W 027°04'4 8.1
2018-May-20 13:56N 36°37' W 027°01'511.3
2018-May-20 13:27N 36°37' W 026°55'2411.0
2018-May-20 11:14N 36°35' W 026°24'311.2
2018-May-20 11:00N 36°35' W 026°21'611.2
2018-May-20 10:30N 36°35' W 026°14'511.0
2018-May-20 10:00N 36°34' W 026°07'510.8
2018-May-20 09:30N 36°35' W 026°01'510.9
2018-May-20 09:00N 36°34' W 025°54'611.1
2018-May-20 08:30N 36°34' W 025°47'611.3
2018-May-20 08:00N 36°34' W 025°40'611.5
2018-May-20 07:30N 36°33' W 025°33'611.5
2018-May-20 07:00N 36°33' W 025°26'611.4
2018-May-20 06:30N 36°33' W 025°19'611.5
2018-May-20 06:00N 36°33' W 025°12'611.3
2018-May-20 05:30N 36°32' W 025°05'611.3
2018-May-20 05:00N 36°32' W 024°57'611.4
2018-May-20 04:30N 36°32' W 024°50'611.2
2018-May-20 04:00N 36°32' W 024°43'611.3
2018-May-20 03:30N 36°31' W 024°36'611.5
2018-May-20 03:00N 36°31' W 024°29'611.6
2018-May-20 02:30N 36°31' W 024°22'611.6
2018-May-20 02:00N 36°31' W 024°15'611.7
2018-May-20 01:30N 36°30' W 024°07'611.6
2018-May-20 01:00N 36°30' W 024°00'611.9
2018-May-20 00:30N 36°30' W 023°53'611.8
2018-May-20 00:00N 36°29' W 023°46'611.8
2018-May-19 23:30N 36°29' W 023°38'812.0
2018-May-19 22:52N 36°28' W 023°29'612.2
2018-May-19 22:21N 36°28' W 023°21'52811.0
2018-May-17 22:31N 36°03' W 012°27'410.4
2018-May-17 22:10N 36°02' W 012°23'210.5
2018-May-17 21:58N 36°02' W 012°20'510.6
2018-May-17 21:30N 36°02' W 012°14'610.7
2018-May-17 21:00N 36°02' W 012°07'510.9
2018-May-17 20:30N 36°02' W 012°01'510.9
2018-May-17 20:00N 36°01' W 011°54'611.1
2018-May-17 19:29N 36°01' W 011°47'511.0
2018-May-17 19:00N 36°01' W 011°40'710.9
2018-May-17 18:24N 36°00' W 011°32'511.0
2018-May-17 17:59N 36°00' W 011°27'611.1
2018-May-17 17:27N 35°60' W 011°19'27810.8
2018-May-16 15:46N 35°58' W 005°36'3 9.9
2018-May-16 15:30N 35°58' W 005°33'6 9.8
2018-May-16 14:54N 36°01' W 005°26'3 8.6
2018-May-16 14:30N 36°03' W 005°24'5 9.0
2018-May-16 14:00N 36°08' W 005°24'1 1.2
2018-May-16 13:30N 36°08' W 005°23'0 0.0
2018-May-16 07:57N 36°08' W 005°23'0 0.1
2018-May-16 07:15N 36°08' W 005°23'0 0.0
2018-May-16 04:42N 36°08' W 005°23'1 2.6
2018-May-16 04:18N 36°07' W 005°22'1 5.0
2018-May-16 04:00N 36°06' W 005°22'3 5.5
2018-May-16 03:30N 36°05' W 005°19'0 0.9
2018-May-16 03:00N 36°05' W 005°18'4 8.2
2018-May-16 02:30N 36°07' W 005°14'2 1.4
2018-May-16 01:19N 36°09' W 005°13'0 0.2
2018-May-15 23:57N 36°08' W 005°13'2 0.8
2018-May-15 21:35N 36°06' W 005°12'  

Dump ship's entire track history